SYN003 KSLC-KPDX
Flight info
| Callsign | SYN003 |
|---|---|
| Flight time | 1h 27m |
| Altitude | 38000 |
| Route | CGULL1 TWF ALKAL IMB JOTBA HHOOD6 |
| Aircraft | BCS3/M-SBDE2E3GIRWXY/LB1 |
Departure
| Time | 2026-05-04 04:20 |
|---|---|
| Airport | Salt Lake City International Airport (KSLC) |
Arrival
| Time | 2026-05-04 05:47 |
|---|---|
| Airport | Portland International Airport (KPDX) |
| Time | Latitude | Longitude | Altitude | Speed | Heading |
|---|---|---|---|---|---|
| 2026-05-04 03:44 | 40.78890 | -111.95732 | 4057 ft | 0 kts | 90° |
| 2026-05-04 03:54 | 40.78890 | -111.95747 | 4234 ft | 2 kts | 89° |
| 2026-05-04 03:55 | 40.78889 | -111.95768 | 4234 ft | 2 kts | 90° |
| 2026-05-04 03:55 | 40.78889 | -111.95790 | 4234 ft | 2 kts | 90° |
| 2026-05-04 03:55 | 40.78889 | -111.95812 | 4235 ft | 2 kts | 89° |
| 2026-05-04 03:55 | 40.78890 | -111.95833 | 4235 ft | 2 kts | 111° |
| 2026-05-04 03:56 | 40.78901 | -111.95847 | 4232 ft | 2 kts | 179° |
| 2026-05-04 03:56 | 40.78917 | -111.95847 | 4234 ft | 2 kts | 179° |
| 2026-05-04 03:56 | 40.78920 | -111.95847 | 4234 ft | 0 kts | 179° |
| 2026-05-04 04:01 | 40.78919 | -111.95847 | 4235 ft | 1 kts | 179° |
| 2026-05-04 04:01 | 40.78896 | -111.95846 | 4235 ft | 5 kts | 179° |
| 2026-05-04 04:01 | 40.78858 | -111.95846 | 4235 ft | 6 kts | 179° |
| 2026-05-04 04:01 | 40.78805 | -111.95846 | 4235 ft | 11 kts | 181° |
| 2026-05-04 04:02 | 40.78684 | -111.95847 | 4233 ft | 21 kts | 180° |
| 2026-05-04 04:02 | 40.78596 | -111.95849 | 4232 ft | 9 kts | 198° |
| 2026-05-04 04:02 | 40.78568 | -111.95874 | 4232 ft | 0 kts | 221° |
| 2026-05-04 04:02 | 40.78561 | -111.95882 | 4232 ft | 5 kts | 228° |
| 2026-05-04 04:03 | 40.78536 | -111.95962 | 4231 ft | 11 kts | 249° |
| 2026-05-04 04:03 | 40.78465 | -111.96003 | 4231 ft | 16 kts | 182° |
| 2026-05-04 04:03 | 40.78315 | -111.96002 | 4227 ft | 24 kts | 180° |
| 2026-05-04 04:03 | 40.78144 | -111.96003 | 4227 ft | 24 kts | 180° |
| 2026-05-04 04:04 | 40.77982 | -111.96003 | 4250 ft | 23 kts | 180° |
| 2026-05-04 04:04 | 40.77834 | -111.96048 | 4251 ft | 21 kts | 208° |
| 2026-05-04 04:04 | 40.77699 | -111.96063 | 4255 ft | 19 kts | 180° |
| 2026-05-04 04:04 | 40.77567 | -111.96063 | 4255 ft | 19 kts | 180° |
| 2026-05-04 04:05 | 40.77509 | -111.96064 | 4255 ft | 3 kts | 181° |
| 2026-05-04 04:05 | 40.77485 | -111.96064 | 4255 ft | 4 kts | 181° |
| 2026-05-04 04:05 | 40.77446 | -111.96064 | 4255 ft | 8 kts | 180° |
| 2026-05-04 04:05 | 40.77384 | -111.96064 | 4255 ft | 10 kts | 180° |
| 2026-05-04 04:06 | 40.77309 | -111.96065 | 4254 ft | 11 kts | 185° |
| 2026-05-04 04:06 | 40.77304 | -111.96067 | 4254 ft | 0 kts | 191° |
| 2026-05-04 04:07 | 40.77303 | -111.96067 | 4254 ft | 0 kts | 191° |
| 2026-05-04 04:09 | 40.77294 | -111.96072 | 4252 ft | 3 kts | 205° |
| 2026-05-04 04:09 | 40.77272 | -111.96122 | 4252 ft | 9 kts | 263° |
| 2026-05-04 04:10 | 40.77285 | -111.96223 | 4251 ft | 16 kts | 294° |
| 2026-05-04 04:10 | 40.77335 | -111.96294 | 4252 ft | 0 kts | 330° |
| 2026-05-04 04:10 | 40.77336 | -111.96295 | 4252 ft | 0 kts | 331° |
| 2026-05-04 04:11 | 40.77367 | -111.96316 | 4252 ft | 14 kts | 333° |
| 2026-05-04 04:11 | 40.77500 | -111.96405 | 4250 ft | 28 kts | 336° |
| 2026-05-04 04:11 | 40.77674 | -111.96510 | 4251 ft | 23 kts | 353° |
| 2026-05-04 04:11 | 40.77817 | -111.96429 | 4250 ft | 23 kts | 30° |
| 2026-05-04 04:12 | 40.77930 | -111.96344 | 4250 ft | 0 kts | 29° |
| 2026-05-04 04:13 | 40.77947 | -111.96331 | 4250 ft | 7 kts | 29° |
| 2026-05-04 04:13 | 40.78014 | -111.96281 | 4248 ft | 14 kts | 29° |
| 2026-05-04 04:14 | 40.78112 | -111.96227 | 4247 ft | 16 kts | 17° |
| 2026-05-04 04:14 | 40.78228 | -111.96177 | 4229 ft | 19 kts | 47° |
| 2026-05-04 04:14 | 40.78241 | -111.96074 | 4226 ft | 0 kts | 89° |
| 2026-05-04 04:15 | 40.78243 | -111.96045 | 4226 ft | 9 kts | 79° |
| 2026-05-04 04:15 | 40.78294 | -111.96002 | 4227 ft | 9 kts | 5° |
| 2026-05-04 04:15 | 40.78369 | -111.96001 | 4229 ft | 15 kts | 360° |
| 2026-05-04 04:15 | 40.78525 | -111.96001 | 4231 ft | 29 kts | 0° |
| 2026-05-04 04:16 | 40.78693 | -111.96001 | 4235 ft | 23 kts | 0° |
| 2026-05-04 04:16 | 40.78845 | -111.96003 | 4238 ft | 22 kts | 360° |
| 2026-05-04 04:16 | 40.79003 | -111.96003 | 4235 ft | 23 kts | 0° |
| 2026-05-04 04:16 | 40.79168 | -111.96003 | 4235 ft | 24 kts | 0° |
| 2026-05-04 04:17 | 40.79343 | -111.96003 | 4229 ft | 27 kts | 0° |
| 2026-05-04 04:17 | 40.79533 | -111.96002 | 4230 ft | 28 kts | 0° |
| 2026-05-04 04:17 | 40.79729 | -111.96002 | 4229 ft | 28 kts | 0° |
| 2026-05-04 04:17 | 40.79882 | -111.96002 | 4235 ft | 6 kts | 360° |
| 2026-05-04 04:18 | 40.79921 | -111.96013 | 4236 ft | 5 kts | 329° |
| 2026-05-04 04:18 | 40.79924 | -111.96090 | 4235 ft | 15 kts | 244° |
| 2026-05-04 04:18 | 40.79855 | -111.96175 | 4232 ft | 15 kts | 212° |
| 2026-05-04 04:18 | 40.79758 | -111.96209 | 4233 ft | 15 kts | 180° |
| 2026-05-04 04:19 | 40.79745 | -111.96209 | 4233 ft | 1 kts | 180° |
| 2026-05-04 04:19 | 40.79676 | -111.96209 | 4232 ft | 36 kts | 180° |
| 2026-05-04 04:19 | 40.79166 | -111.96208 | 4233 ft | 110 kts | 180° |
| 2026-05-04 04:19 | 40.78188 | -111.96195 | 4350 ft | 163 kts | 178° |
| 2026-05-04 04:20 | 40.77023 | -111.96285 | 5156 ft | 172 kts | 188° |
| 2026-05-04 04:20 | 40.75884 | -111.96833 | 6104 ft | 179 kts | 218° |
| 2026-05-04 04:20 | 40.75158 | -111.98158 | 6933 ft | 186 kts | 253° |
| 2026-05-04 04:20 | 40.75108 | -111.99922 | 7481 ft | 202 kts | 279° |
| 2026-05-04 04:21 | 40.75368 | -112.01815 | 8187 ft | 218 kts | 281° |
| 2026-05-04 04:21 | 40.75663 | -112.03845 | 8900 ft | 233 kts | 281° |
| 2026-05-04 04:21 | 40.75982 | -112.06017 | 9639 ft | 249 kts | 281° |
| 2026-05-04 04:21 | 40.76322 | -112.08300 | 10463 ft | 256 kts | 281° |
| 2026-05-04 04:22 | 40.76685 | -112.10633 | 11285 ft | 265 kts | 281° |
| 2026-05-04 04:22 | 40.77082 | -112.13098 | 11846 ft | 283 kts | 281° |
| 2026-05-04 04:22 | 40.77498 | -112.15681 | 12585 ft | 291 kts | 281° |
| 2026-05-04 04:22 | 40.77927 | -112.18325 | 13442 ft | 296 kts | 281° |
| 2026-05-04 04:23 | 40.78368 | -112.20991 | 14286 ft | 298 kts | 281° |
| 2026-05-04 04:23 | 40.78857 | -112.23711 | 14799 ft | 313 kts | 288° |
| 2026-05-04 04:23 | 40.79988 | -112.26192 | 15212 ft | 330 kts | 311° |
| 2026-05-04 04:23 | 40.81861 | -112.28040 | 15618 ft | 347 kts | 332° |
| 2026-05-04 04:24 | 40.84080 | -112.29387 | 16325 ft | 351 kts | 335° |
| 2026-05-04 04:24 | 40.86326 | -112.30680 | 17068 ft | 354 kts | 335° |
| 2026-05-04 04:24 | 40.88591 | -112.31980 | 17832 ft | 357 kts | 335° |
| 2026-05-04 04:24 | 40.90888 | -112.33299 | 18504 ft | 361 kts | 335° |
| 2026-05-04 04:25 | 40.93205 | -112.34632 | 19118 ft | 365 kts | 335° |
| 2026-05-04 04:25 | 40.95558 | -112.35987 | 19739 ft | 369 kts | 334° |
| 2026-05-04 04:25 | 40.97921 | -112.37349 | 20380 ft | 373 kts | 334° |
| 2026-05-04 04:25 | 41.00313 | -112.38730 | 20997 ft | 377 kts | 334° |
| 2026-05-04 04:26 | 41.02699 | -112.40108 | 21595 ft | 380 kts | 334° |
| 2026-05-04 04:26 | 41.05169 | -112.41539 | 22182 ft | 384 kts | 334° |
| 2026-05-04 04:26 | 41.07586 | -112.43082 | 22744 ft | 387 kts | 327° |
| 2026-05-04 04:26 | 41.09858 | -112.44935 | 23313 ft | 389 kts | 325° |
| 2026-05-04 04:27 | 41.12151 | -112.46870 | 23816 ft | 392 kts | 325° |
| 2026-05-04 04:27 | 41.14467 | -112.48828 | 24279 ft | 395 kts | 325° |
| 2026-05-04 04:27 | 41.16004 | -112.50126 | 24588 ft | 397 kts | 325° |
| 2026-05-04 04:27 | 41.18268 | -112.52250 | 25044 ft | 399 kts | 321° |
| 2026-05-04 04:28 | 41.20477 | -112.54490 | 25497 ft | 402 kts | 321° |
| 2026-05-04 04:28 | 41.22708 | -112.56764 | 25944 ft | 405 kts | 321° |
| 2026-05-04 04:28 | 41.24952 | -112.59053 | 26392 ft | 408 kts | 321° |
| 2026-05-04 04:28 | 41.27205 | -112.61378 | 26804 ft | 410 kts | 318° |
| 2026-05-04 04:29 | 41.29242 | -112.64058 | 27214 ft | 412 kts | 311° |
| 2026-05-04 04:29 | 41.31186 | -112.66875 | 27629 ft | 415 kts | 311° |
| 2026-05-04 04:29 | 41.33136 | -112.69729 | 28018 ft | 418 kts | 311° |
| 2026-05-04 04:29 | 41.35099 | -112.72605 | 28388 ft | 421 kts | 311° |
| 2026-05-04 04:30 | 41.37072 | -112.75495 | 28772 ft | 424 kts | 311° |
| 2026-05-04 04:30 | 41.39059 | -112.78409 | 29159 ft | 426 kts | 311° |
| 2026-05-04 04:30 | 41.41026 | -112.81329 | 29426 ft | 430 kts | 310° |
| 2026-05-04 04:30 | 41.42995 | -112.84332 | 29775 ft | 432 kts | 310° |
| 2026-05-04 04:31 | 41.44972 | -112.87359 | 30106 ft | 434 kts | 310° |
| 2026-05-04 04:31 | 41.46961 | -112.90408 | 30407 ft | 436 kts | 310° |
| 2026-05-04 04:31 | 41.48953 | -112.93462 | 30732 ft | 436 kts | 310° |
| 2026-05-04 04:31 | 41.50945 | -112.96517 | 31006 ft | 438 kts | 310° |
| 2026-05-04 04:32 | 41.52942 | -112.99583 | 31304 ft | 438 kts | 310° |
| 2026-05-04 04:32 | 41.54951 | -113.02672 | 31565 ft | 440 kts | 310° |
| 2026-05-04 04:32 | 41.56964 | -113.05768 | 31814 ft | 441 kts | 310° |
| 2026-05-04 04:32 | 41.58983 | -113.08876 | 32058 ft | 443 kts | 310° |
| 2026-05-04 04:33 | 41.60981 | -113.11955 | 32257 ft | 445 kts | 310° |
| 2026-05-04 04:33 | 41.63017 | -113.15095 | 32417 ft | 448 kts | 310° |
| 2026-05-04 04:33 | 41.65046 | -113.18227 | 32853 ft | 444 kts | 310° |
| 2026-05-04 04:33 | 41.67068 | -113.21353 | 32922 ft | 448 kts | 310° |
| 2026-05-04 04:34 | 41.69110 | -113.24512 | 33136 ft | 448 kts | 310° |
| 2026-05-04 04:34 | 41.71156 | -113.27681 | 33353 ft | 448 kts | 310° |
| 2026-05-04 04:34 | 41.73194 | -113.30842 | 33631 ft | 448 kts | 310° |
| 2026-05-04 04:34 | 41.75223 | -113.33990 | 33879 ft | 447 kts | 310° |
| 2026-05-04 04:35 | 41.77256 | -113.37149 | 34082 ft | 446 kts | 310° |
| 2026-05-04 04:35 | 41.79275 | -113.40289 | 34429 ft | 442 kts | 310° |
| 2026-05-04 04:35 | 41.81285 | -113.43419 | 34570 ft | 444 kts | 310° |
| 2026-05-04 04:35 | 41.83303 | -113.46565 | 34724 ft | 444 kts | 310° |
| 2026-05-04 04:36 | 41.85317 | -113.49707 | 34915 ft | 444 kts | 310° |
| 2026-05-04 04:36 | 41.87299 | -113.52803 | 35094 ft | 444 kts | 310° |
| 2026-05-04 04:36 | 41.89312 | -113.55950 | 35307 ft | 443 kts | 309° |
| 2026-05-04 04:36 | 41.91321 | -113.59095 | 35478 ft | 443 kts | 309° |
| 2026-05-04 04:37 | 41.97306 | -113.68482 | 36130 ft | 440 kts | 309° |
| 2026-05-04 04:37 | 41.99298 | -113.71613 | 36304 ft | 440 kts | 309° |
| 2026-05-04 04:38 | 42.01283 | -113.74736 | 36490 ft | 439 kts | 309° |
| 2026-05-04 04:38 | 42.03270 | -113.77867 | 36575 ft | 441 kts | 309° |
| 2026-05-04 04:38 | 42.05265 | -113.81012 | 36776 ft | 441 kts | 309° |
| 2026-05-04 04:38 | 42.07242 | -113.84133 | 36951 ft | 440 kts | 309° |
| 2026-05-04 04:39 | 42.09224 | -113.87264 | 37191 ft | 439 kts | 309° |
| 2026-05-04 04:39 | 42.11204 | -113.90397 | 37376 ft | 438 kts | 309° |
| 2026-05-04 04:39 | 42.13180 | -113.93525 | 37541 ft | 438 kts | 309° |
| 2026-05-04 04:39 | 42.15130 | -113.96616 | 37698 ft | 438 kts | 309° |
| 2026-05-04 04:40 | 42.17100 | -113.99742 | 37809 ft | 439 kts | 309° |
| 2026-05-04 04:40 | 42.19093 | -114.02894 | 37810 ft | 442 kts | 309° |
| 2026-05-04 04:40 | 42.23094 | -114.09225 | 37796 ft | 442 kts | 309° |
| 2026-05-04 04:41 | 42.27025 | -114.15456 | 37785 ft | 431 kts | 309° |
| 2026-05-04 04:41 | 42.30933 | -114.21668 | 37792 ft | 437 kts | 309° |
| 2026-05-04 04:42 | 42.34903 | -114.27990 | 37795 ft | 444 kts | 309° |
| 2026-05-04 04:42 | 42.38852 | -114.34292 | 37780 ft | 436 kts | 309° |
| 2026-05-04 04:43 | 42.42735 | -114.40502 | 37899 ft | 433 kts | 309° |
| 2026-05-04 04:43 | 42.46656 | -114.46788 | 37901 ft | 440 kts | 309° |
| 2026-05-04 04:44 | 42.50677 | -114.53104 | 37902 ft | 444 kts | 310° |
| 2026-05-04 04:44 | 42.54713 | -114.59327 | 37883 ft | 432 kts | 310° |
| 2026-05-04 04:45 | 42.58667 | -114.65443 | 37870 ft | 437 kts | 310° |
| 2026-05-04 04:47 | 42.72720 | -114.87299 | 37807 ft | 435 kts | 310° |
| 2026-05-04 04:47 | 42.76729 | -114.93566 | 37797 ft | 442 kts | 310° |
| 2026-05-04 04:48 | 42.80755 | -114.99874 | 37787 ft | 442 kts | 311° |
| 2026-05-04 04:49 | 42.90628 | -115.15400 | 37819 ft | 427 kts | 310° |
| 2026-05-04 04:49 | 42.94461 | -115.21452 | 37807 ft | 419 kts | 311° |
| 2026-05-04 04:50 | 42.98321 | -115.27558 | 37804 ft | 428 kts | 311° |
| 2026-05-04 04:50 | 43.02013 | -115.33911 | 37797 ft | 428 kts | 301° |
| 2026-05-04 04:51 | 43.04890 | -115.40902 | 37801 ft | 420 kts | 299° |
| 2026-05-04 04:51 | 43.07713 | -115.47960 | 37815 ft | 428 kts | 299° |
| 2026-05-04 04:52 | 43.10580 | -115.55141 | 37816 ft | 429 kts | 299° |
| 2026-05-04 04:52 | 43.13400 | -115.62221 | 37820 ft | 419 kts | 299° |
| 2026-05-04 04:53 | 43.16215 | -115.69304 | 37832 ft | 427 kts | 299° |
| 2026-05-04 04:53 | 43.19054 | -115.76468 | 37826 ft | 431 kts | 299° |
| 2026-05-04 04:54 | 43.21882 | -115.83618 | 37823 ft | 421 kts | 299° |
| 2026-05-04 04:54 | 43.24684 | -115.90721 | 37827 ft | 428 kts | 299° |
| 2026-05-04 04:55 | 43.27534 | -115.97961 | 37814 ft | 431 kts | 299° |
| 2026-05-04 04:55 | 43.30319 | -116.05057 | 37797 ft | 420 kts | 299° |
| 2026-05-04 04:56 | 43.33109 | -116.12183 | 37824 ft | 428 kts | 299° |
| 2026-05-04 04:56 | 43.35957 | -116.19472 | 37825 ft | 437 kts | 299° |
| 2026-05-04 04:57 | 43.38825 | -116.26836 | 37804 ft | 432 kts | 299° |
| 2026-05-04 04:57 | 43.41606 | -116.33994 | 37823 ft | 425 kts | 299° |
| 2026-05-04 04:58 | 43.44422 | -116.41258 | 37841 ft | 434 kts | 299° |
| 2026-05-04 04:58 | 43.47273 | -116.48632 | 37843 ft | 434 kts | 299° |
| 2026-05-04 04:59 | 43.50061 | -116.55866 | 37850 ft | 424 kts | 299° |
| 2026-05-04 04:59 | 43.52852 | -116.63118 | 37855 ft | 433 kts | 299° |
| 2026-05-04 05:00 | 43.55685 | -116.70504 | 37842 ft | 436 kts | 299° |
| 2026-05-04 05:00 | 43.58456 | -116.77750 | 37830 ft | 424 kts | 299° |
| 2026-05-04 05:01 | 43.59840 | -116.81372 | 37840 ft | 427 kts | 299° |
| 2026-05-04 05:01 | 43.62638 | -116.88711 | 37839 ft | 436 kts | 299° |
| 2026-05-04 05:02 | 43.65473 | -116.96169 | 37828 ft | 437 kts | 299° |
| 2026-05-04 05:02 | 43.68246 | -117.03488 | 37819 ft | 425 kts | 299° |
| 2026-05-04 05:03 | 43.71010 | -117.10794 | 37827 ft | 433 kts | 299° |
| 2026-05-04 05:04 | 43.76567 | -117.25549 | 37824 ft | 425 kts | 299° |
| 2026-05-04 05:04 | 43.79311 | -117.32860 | 37838 ft | 432 kts | 299° |
| 2026-05-04 05:06 | 43.90357 | -117.62495 | 37852 ft | 440 kts | 299° |
| 2026-05-04 05:07 | 43.93089 | -117.69878 | 37849 ft | 426 kts | 299° |
| 2026-05-04 05:07 | 43.95803 | -117.77228 | 37869 ft | 428 kts | 299° |
| 2026-05-04 05:09 | 44.08048 | -118.10629 | 37895 ft | 437 kts | 299° |
| 2026-05-04 05:10 | 44.10755 | -118.18074 | 37885 ft | 426 kts | 299° |
| 2026-05-04 05:10 | 44.13445 | -118.25485 | 37905 ft | 433 kts | 299° |
| 2026-05-04 05:11 | 44.16157 | -118.32977 | 37906 ft | 438 kts | 299° |
| 2026-05-04 05:11 | 44.18856 | -118.40461 | 37901 ft | 426 kts | 299° |
| 2026-05-04 05:12 | 44.21528 | -118.47882 | 37920 ft | 432 kts | 299° |
| 2026-05-04 05:12 | 44.24244 | -118.55445 | 37918 ft | 438 kts | 299° |
| 2026-05-04 05:13 | 44.26935 | -118.62968 | 37911 ft | 427 kts | 299° |
| 2026-05-04 05:13 | 44.29570 | -118.70351 | 37935 ft | 431 kts | 299° |
| 2026-05-04 05:14 | 44.32270 | -118.77930 | 37921 ft | 440 kts | 299° |
| 2026-05-04 05:14 | 44.34973 | -118.85545 | 37910 ft | 431 kts | 299° |
| 2026-05-04 05:15 | 44.37622 | -118.93029 | 37930 ft | 432 kts | 299° |
| 2026-05-04 05:15 | 44.40310 | -119.00638 | 37900 ft | 440 kts | 299° |
| 2026-05-04 05:16 | 44.42550 | -119.07002 | 37902 ft | 434 kts | 299° |
| 2026-05-04 05:16 | 44.45194 | -119.14534 | 37918 ft | 431 kts | 299° |
| 2026-05-04 05:17 | 44.47861 | -119.22142 | 37926 ft | 440 kts | 299° |
| 2026-05-04 05:17 | 44.50540 | -119.29814 | 37897 ft | 434 kts | 299° |
| 2026-05-04 05:18 | 44.53154 | -119.37321 | 37905 ft | 431 kts | 299° |
| 2026-05-04 05:18 | 44.55812 | -119.44970 | 37917 ft | 440 kts | 299° |
| 2026-05-04 05:19 | 44.58499 | -119.52726 | 37902 ft | 440 kts | 299° |
| 2026-05-04 05:19 | 44.61125 | -119.60340 | 37903 ft | 430 kts | 299° |
| 2026-05-04 05:20 | 44.63757 | -119.67968 | 37893 ft | 438 kts | 300° |
| 2026-05-04 05:20 | 44.67296 | -119.74900 | 37909 ft | 438 kts | 315° |
| 2026-05-04 05:21 | 44.71314 | -119.81125 | 37897 ft | 425 kts | 316° |
| 2026-05-04 05:21 | 44.75304 | -119.87277 | 37904 ft | 429 kts | 316° |
| 2026-05-04 05:22 | 44.79375 | -119.93571 | 37906 ft | 438 kts | 315° |
| 2026-05-04 05:22 | 44.83432 | -119.99863 | 37892 ft | 426 kts | 315° |
| 2026-05-04 05:23 | 44.85422 | -120.02955 | 37498 ft | 433 kts | 315° |
| 2026-05-04 05:23 | 44.87501 | -120.06181 | 36769 ft | 451 kts | 315° |
| 2026-05-04 05:23 | 44.89617 | -120.09474 | 36229 ft | 454 kts | 315° |
| 2026-05-04 05:23 | 44.91741 | -120.12784 | 35644 ft | 455 kts | 315° |
| 2026-05-04 05:24 | 44.93864 | -120.16099 | 35016 ft | 456 kts | 315° |
| 2026-05-04 05:24 | 44.95966 | -120.19385 | 34435 ft | 457 kts | 315° |
| 2026-05-04 05:24 | 44.98096 | -120.22720 | 33817 ft | 457 kts | 315° |
| 2026-05-04 05:24 | 45.00226 | -120.26056 | 33168 ft | 457 kts | 315° |
| 2026-05-04 05:25 | 45.02358 | -120.29401 | 32577 ft | 455 kts | 315° |
| 2026-05-04 05:25 | 45.04472 | -120.32721 | 31978 ft | 454 kts | 315° |
| 2026-05-04 05:25 | 45.06583 | -120.36040 | 31365 ft | 453 kts | 315° |
| 2026-05-04 05:25 | 45.08688 | -120.39354 | 30764 ft | 451 kts | 315° |
| 2026-05-04 05:26 | 45.10790 | -120.42667 | 30183 ft | 449 kts | 315° |
| 2026-05-04 05:26 | 45.12866 | -120.45954 | 29521 ft | 447 kts | 314° |
| 2026-05-04 05:26 | 45.14931 | -120.49220 | 28950 ft | 443 kts | 315° |
| 2026-05-04 05:26 | 45.16802 | -120.52583 | 28376 ft | 441 kts | 305° |
| 2026-05-04 05:27 | 45.18375 | -120.56372 | 27774 ft | 439 kts | 302° |
| 2026-05-04 05:28 | 45.28415 | -120.82406 | 23801 ft | 421 kts | 301° |
| 2026-05-04 05:29 | 45.29810 | -120.86049 | 23210 ft | 419 kts | 301° |
| 2026-05-04 05:29 | 45.31179 | -120.89626 | 22649 ft | 415 kts | 301° |
| 2026-05-04 05:29 | 45.32565 | -120.93256 | 22111 ft | 410 kts | 301° |
| 2026-05-04 05:29 | 45.33920 | -120.96808 | 21560 ft | 406 kts | 301° |
| 2026-05-04 05:31 | 45.41486 | -121.21721 | 17901 ft | 384 kts | 290° |
| 2026-05-04 05:31 | 45.42324 | -121.25326 | 17391 ft | 380 kts | 290° |
| 2026-05-04 05:32 | 45.43149 | -121.28878 | 16897 ft | 376 kts | 290° |
| 2026-05-04 05:32 | 45.43961 | -121.32381 | 16575 ft | 368 kts | 290° |
| 2026-05-04 05:32 | 45.44747 | -121.35778 | 16106 ft | 364 kts | 290° |
| 2026-05-04 05:33 | 45.46329 | -121.42618 | 15139 ft | 358 kts | 289° |
| 2026-05-04 05:33 | 45.47104 | -121.45974 | 14667 ft | 355 kts | 289° |
| 2026-05-04 05:33 | 45.47863 | -121.49268 | 14207 ft | 352 kts | 289° |
| 2026-05-04 05:33 | 45.48621 | -121.52561 | 13742 ft | 349 kts | 289° |
| 2026-05-04 05:34 | 45.49373 | -121.55837 | 13255 ft | 345 kts | 289° |
| 2026-05-04 05:34 | 45.50112 | -121.59067 | 12811 ft | 341 kts | 289° |
| 2026-05-04 05:34 | 45.50843 | -121.62260 | 12321 ft | 337 kts | 289° |
| 2026-05-04 05:34 | 45.51559 | -121.65395 | 11892 ft | 322 kts | 289° |
| 2026-05-04 05:35 | 45.52236 | -121.68363 | 11489 ft | 309 kts | 289° |
| 2026-05-04 05:35 | 45.52837 | -121.71246 | 11087 ft | 300 kts | 281° |
| 2026-05-04 05:35 | 45.53068 | -121.74185 | 10714 ft | 297 kts | 275° |
| 2026-05-04 05:35 | 45.53198 | -121.77107 | 10321 ft | 293 kts | 274° |
| 2026-05-04 05:36 | 45.53315 | -121.79991 | 9935 ft | 289 kts | 274° |
| 2026-05-04 05:36 | 45.53430 | -121.82818 | 9541 ft | 282 kts | 274° |
| 2026-05-04 05:36 | 45.53541 | -121.85552 | 9175 ft | 277 kts | 274° |
| 2026-05-04 05:36 | 45.53654 | -121.88329 | 8805 ft | 276 kts | 274° |
| 2026-05-04 05:37 | 45.53764 | -121.91039 | 8441 ft | 272 kts | 273° |
| 2026-05-04 05:37 | 45.53869 | -121.93679 | 8081 ft | 267 kts | 273° |
| 2026-05-04 05:37 | 45.53974 | -121.96280 | 7756 ft | 259 kts | 273° |
| 2026-05-04 05:38 | 45.54174 | -122.01335 | 7856 ft | 263 kts | 274° |
| 2026-05-04 05:38 | 45.53990 | -122.03870 | 7820 ft | 251 kts | 249° |
| 2026-05-04 05:38 | 45.53217 | -122.05954 | 7797 ft | 241 kts | 238° |
| 2026-05-04 05:38 | 45.52254 | -122.08025 | 7369 ft | 248 kts | 236° |
| 2026-05-04 05:39 | 45.51265 | -122.10039 | 7057 ft | 248 kts | 236° |
| 2026-05-04 05:39 | 45.49280 | -122.14034 | 6399 ft | 249 kts | 235° |
| 2026-05-04 05:39 | 45.48263 | -122.16075 | 6057 ft | 249 kts | 235° |
| 2026-05-04 05:40 | 45.47539 | -122.20717 | 5381 ft | 245 kts | 275° |
| 2026-05-04 05:40 | 45.47700 | -122.23131 | 5046 ft | 245 kts | 277° |
| 2026-05-04 05:40 | 45.47893 | -122.25531 | 4725 ft | 243 kts | 278° |
| 2026-05-04 05:41 | 45.48092 | -122.27920 | 4389 ft | 243 kts | 278° |
| 2026-05-04 05:41 | 45.48297 | -122.30312 | 4066 ft | 241 kts | 281° |
| 2026-05-04 05:41 | 45.48928 | -122.32478 | 3768 ft | 236 kts | 301° |
| 2026-05-04 05:41 | 45.49708 | -122.34530 | 3449 ft | 236 kts | 299° |
| 2026-05-04 05:42 | 45.50472 | -122.36604 | 3143 ft | 236 kts | 300° |
| 2026-05-04 05:42 | 45.51249 | -122.38672 | 2825 ft | 236 kts | 300° |
| 2026-05-04 05:42 | 45.52018 | -122.40684 | 2503 ft | 224 kts | 301° |
| 2026-05-04 05:42 | 45.52750 | -122.42572 | 2214 ft | 211 kts | 301° |
| 2026-05-04 05:43 | 45.53449 | -122.44331 | 1941 ft | 196 kts | 302° |
| 2026-05-04 05:43 | 45.54155 | -122.45923 | 1694 ft | 184 kts | 303° |
| 2026-05-04 05:43 | 45.54792 | -122.47468 | 1481 ft | 182 kts | 300° |
| 2026-05-04 05:45 | 45.58791 | -122.57801 | 38 ft | 129 kts | 299° |
| 2026-05-04 05:45 | 45.59146 | -122.58704 | 39 ft | 74 kts | 299° |
| 2026-05-04 05:47 | 45.59164 | -122.59885 | 30 ft | 6 kts | 222° |
| 2026-05-04 05:47 | 45.59141 | -122.59947 | 31 ft | 8 kts | 258° |
| 2026-05-04 05:47 | 45.59134 | -122.60026 | 32 ft | 9 kts | 256° |
| 2026-05-04 05:48 | 45.59076 | -122.60110 | 31 ft | 14 kts | 210° |
| 2026-05-04 05:48 | 45.58989 | -122.60172 | 33 ft | 13 kts | 190° |
| 2026-05-04 05:48 | 45.58931 | -122.60109 | 35 ft | 10 kts | 121° |
| 2026-05-04 05:48 | 45.58895 | -122.60017 | 36 ft | 11 kts | 118° |
| 2026-05-04 05:49 | 45.58855 | -122.59912 | 35 ft | 13 kts | 118° |
| 2026-05-04 05:49 | 45.58820 | -122.59819 | 35 ft | 7 kts | 116° |
| 2026-05-04 05:49 | 45.58795 | -122.59757 | 38 ft | 7 kts | 120° |
| 2026-05-04 05:49 | 45.58798 | -122.59687 | 36 ft | 9 kts | 54° |
| 2026-05-04 05:51 | 45.58835 | -122.59636 | 37 ft | 0 kts | 43° |